Strona główna
METAR-TAF:

METAR-TAF

Lotnisko :

Port lotniczy Dżakarta-Soekarno-Hatta

Dżakarta, Jawa, Indonezja

Szerokość geograficzna: 06-07S, Długość geograficzna: 106-39E, wysokość: 8 m

Aktualna obserwacja pogody

Raport powstał 19 minut temu, godzina 15:30 UTC
Wiatr 4 kt z kierunków zmiennych
Temperatura 28°C
Wilgotność 74%
Ciśnienie 1011 hPa
Widzialność: 3000 m
Przerywane chmury na wysokości 2000 ft
zmętnienie

METAR: WIII 251530Z VRB04KT 3000 HZ BKN020 28/23 Q1011 NOSIG

czas: 22:49 (15:49 UTC)

Prognoza

Raport powstał 4 godziny i 49 minut temu, godzina 11:00 UTC
Prognoza ważna od 25 godzina 12 UTC do 26 godzina 18 UTC
Wiatr 10 kt od wschodnio-południowy wschód
Widzialność: 5000 m
Rozproszone chmury na wysokości 2000 ft
zmętnienie
Stopniowe zmiany
od 25 godzina 14 UTC do 25 godzina 16 UTC
Wiatr 5 kt od południowo-południowy zachód

TAF: WIII 251100Z 2512/2618 11010KT 5000 HZ SCT020 BECMG 2514/2516 21005KT

Obserwacja i prognoza pogody dla ponad 4000 lotnisk (raport METAR i TAF).

Dostępne stacje oznaczono żółtymi i czerwonymi punktami na mapie.

Najedź kursorem aby zobaczyć nazwę stacji.

Kliknij aby zobaczyć obserwacje i prognozy pogody.

Aby zmienić mapę: kliknij na zielony przycisk z czarnym krzyżykiem, aby powiększyć; na zielony przycisk z myślnikiem, aby pomniejszyć; na zielone strzałki, aby przejść do map sąsiednich.


METAR-TAF: